Time;durP1;ratioP1;P1;durP2;ratioP2;P2;SDS_P1;SDS_P2;PMS_P1;PMS_P2;Temp;Humidity;BMP_temperature;BMP_pressure;BME280_temperature;BME280_humidity;BME280_pressure;Samples;Min_cycle;Max_cycle;Signal;HPM_P1;HPM_P2
2021/12/12 00:02:06;;;;;;;17.00;7.75;;;29.20;82.50;;;;;;5064509;28;20024;-53
2021/12/12 00:04:45;;;;;;;15.27;7.80;;;29.20;82.60;;;;;;5064471;28;20043;-53
2021/12/12 00:07:26;;;;;;;13.93;8.45;;;29.20;82.60;;;;;;5064517;28;20017;-54
2021/12/12 00:10:04;;;;;;;13.90;8.82;;;29.20;82.60;;;;;;5064045;28;20332;-53
2021/12/12 00:12:44;;;;;;;14.07;8.10;;;29.20;82.60;;;;;;5064329;28;20301;-52
2021/12/12 00:15:12;;;;;;;16.45;8.00;;;29.20;82.80;;;;;;5063930;28;20025;-50
2021/12/12 00:17:40;;;;;;;18.50;7.40;;;29.10;82.80;;;;;;5063439;28;20017;-56
2021/12/12 00:20:08;;;;;;;12.32;6.50;;;29.10;82.50;;;;;;5063515;28;20021;-52
2021/12/12 00:22:35;;;;;;;14.65;6.28;;;29.10;82.60;;;;;;5079896;28;20075;-50
2021/12/12 00:25:03;;;;;;;11.13;5.65;;;29.10;82.60;;;;;;5063376;28;20021;-54
2021/12/12 00:27:29;;;;;;;12.57;6.60;;;29.10;82.50;;;;;;5078872;28;20025;-50
2021/12/12 00:30:03;;;;;;;10.32;5.97;;;29.10;82.40;;;;;;5065970;28;20032;-54
2021/12/12 00:32:32;;;;;;;12.25;6.43;;;29.10;82.20;;;;;;5067448;28;20009;-56
2021/12/12 00:35:03;;;;;;;10.98;5.85;;;29.10;82.00;;;;;;5066915;28;20023;-51
2021/12/12 00:37:34;;;;;;;10.80;5.32;;;29.00;81.70;;;;;;5066995;28;20017;-49
2021/12/12 00:40:11;;;;;;;12.50;5.28;;;29.00;81.90;;;;;;5066742;28;20043;-50
2021/12/12 00:42:38;;;;;;;15.75;5.90;;;29.00;81.80;;;;;;5066732;28;20076;-51
2021/12/12 00:45:11;;;;;;;12.10;5.63;;;29.00;81.70;;;;;;5066694;28;20025;-52
2021/12/12 00:47:40;;;;;;;11.30;5.50;;;29.00;81.60;;;;;;5066349;28;20021;-52
2021/12/12 00:50:14;;;;;;;12.60;6.25;;;29.00;81.60;;;;;;5066499;28;20106;-51
2021/12/12 00:52:44;;;;;;;12.73;6.25;;;29.00;81.60;;;;;;5066875;28;20089;-52
2021/12/12 00:55:15;;;;;;;12.05;6.30;;;28.90;81.40;;;;;;5066756;28;20017;-54
2021/12/12 00:57:42;;;;;;;10.73;5.75;;;28.90;81.40;;;;;;5065583;28;20017;-51
2021/12/12 01:00:12;;;;;;;11.95;5.03;;;28.90;81.10;;;;;;5082194;28;20104;-52
2021/12/12 01:02:39;;;;;;;14.00;5.13;;;28.90;81.10;;;;;;5066425;28;20016;-51
2021/12/12 01:05:09;;;;;;;9.77;4.50;;;28.90;81.10;;;;;;5066488;28;20196;-51
2021/12/12 01:07:50;;;;;;;8.43;4.75;;;28.90;80.90;;;;;;5066140;28;20028;-52
2021/12/12 01:10:29;;;;;;;8.55;4.57;;;28.90;80.90;;;;;;5081837;28;20025;-53
2021/12/12 01:12:58;;;;;;;13.85;9.07;;;28.90;80.80;;;;;;5064977;28;20021;-54
2021/12/12 01:15:45;;;;;;;31.05;20.95;;;28.90;80.90;;;;;;5066858;28;20017;-54
2021/12/12 01:18:16;;;;;;;30.83;24.30;;;28.80;80.80;;;;;;5066184;28;20055;-55
2021/12/12 01:21:11;;;;;;;24.20;18.55;;;28.90;81.00;;;;;;5066424;28;20032;-51
2021/12/12 01:24:03;;;;;;;21.17;13.73;;;28.80;80.80;;;;;;5066522;28;20029;-56
2021/12/12 01:26:30;;;;;;;15.45;9.48;;;28.80;80.70;;;;;;5063610;28;20075;-51
2021/12/12 01:29:00;;;;;;;13.32;8.90;;;28.80;80.60;;;;;;5066503;28;20078;-52
2021/12/12 01:31:33;;;;;;;10.60;7.60;;;28.80;81.10;;;;;;5066123;28;20063;-51
2021/12/12 01:34:35;;;;;;;12.90;6.75;;;28.70;80.50;;;;;;5066410;28;20024;-55
2021/12/12 01:37:22;;;;;;;10.13;6.57;;;28.70;80.40;;;;;;5061053;28;20108;-55
2021/12/12 01:39:57;;;;;;;11.75;6.25;;;28.70;80.40;;;;;;5065479;28;20272;-49
2021/12/12 01:42:53;;;;;;;9.25;6.47;;;28.70;80.30;;;;;;5082458;28;20370;-53
2021/12/12 01:45:43;;;;;;;11.30;5.88;;;28.70;80.30;;;;;;5061795;28;20165;-50
2021/12/12 01:48:40;;;;;;;12.43;6.05;;;28.70;80.40;;;;;;5065624;28;20037;-57
2021/12/12 01:51:11;;;;;;;8.48;4.68;;;28.70;80.40;;;;;;5065603;28;20335;-56
2021/12/12 01:53:43;;;;;;;9.85;4.60;;;28.70;80.40;;;;;;5065670;28;20092;-51
2021/12/12 01:56:17;;;;;;;11.15;5.82;;;28.60;80.20;;;;;;5065504;28;20055;-47
2021/12/12 01:58:46;;;;;;;10.75;5.00;;;28.60;80.30;;;;;;5081436;28;20049;-49
2021/12/12 02:01:23;;;;;;;7.22;4.55;;;28.60;80.30;;;;;;5066197;28;20017;-51
2021/12/12 02:04:02;;;;;;;8.73;5.07;;;28.60;80.10;;;;;;5066070;28;20041;-47
2021/12/12 02:06:29;;;;;;;16.98;6.88;;;28.60;80.10;;;;;;5065457;28;20086;-51
2021/12/12 02:08:57;;;;;;;18.60;7.75;;;28.60;79.90;;;;;;5065115;28;20021;-48
2021/12/12 02:11:33;;;;;;;12.05;6.40;;;28.60;79.80;;;;;;5065303;28;20044;-48
2021/12/12 02:14:09;;;;;;;11.80;7.50;;;28.60;79.90;;;;;;5065097;28;20020;-53
2021/12/12 02:17:00;;;;;;;12.93;6.57;;;28.60;79.80;;;;;;5064976;28;20013;-50
2021/12/12 02:19:42;;;;;;;9.25;5.50;;;28.60;79.80;;;;;;5062304;28;20040;-56
2021/12/12 02:36:17;;;;;;;9.00;4.28;;;28.60;78.90;;;;;;5064828;28;20348;-54
2021/12/12 02:38:45;;;;;;;7.00;3.88;;;28.50;78.80;;;;;;5065094;28;20028;-51
2021/12/12 02:41:14;;;;;;;8.98;3.55;;;28.50;78.70;;;;;;5064489;28;20016;-52
2021/12/12 02:43:52;;;;;;;9.35;3.70;;;28.50;78.60;;;;;;5065041;28;20290;-52
2021/12/12 02:46:28;;;;;;;9.40;3.72;;;28.50;78.30;;;;;;5064847;28;20020;-51
2021/12/12 02:49:05;;;;;;;19.70;3.92;;;28.50;78.30;;;;;;5064417;28;20045;-55
2021/12/12 02:51:39;;;;;;;10.10;3.95;;;28.50;78.10;;;;;;5062553;28;20021;-55
2021/12/12 02:54:10;;;;;;;10.98;4.35;;;28.50;78.00;;;;;;5064484;28;20279;-51
2021/12/12 02:56:41;;;;;;;8.90;3.80;;;28.50;78.00;;;;;;5064602;28;20017;-55
2021/12/12 02:59:11;;;;;;;10.30;3.85;;;28.40;78.00;;;;;;5064282;28;20029;-52
2021/12/12 03:01:45;;;;;;;7.57;3.53;;;28.50;78.00;;;;;;5064408;28;20021;-55
2021/12/12 03:04:12;;;;;;;6.85;3.65;;;28.40;77.90;;;;;;5064496;28;20029;-52
2021/12/12 03:06:41;;;;;;;9.43;4.40;;;28.40;78.00;;;;;;5063045;28;20021;-51
2021/12/12 03:09:30;;;;;;;8.45;3.65;;;28.40;78.50;;;;;;5064175;28;20021;-51
2021/12/12 03:12:01;;;;;;;8.05;3.33;;;28.40;77.90;;;;;;5064102;28;20020;-52
2021/12/12 03:14:34;;;;;;;5.78;3.47;;;28.40;78.10;;;;;;5064187;28;20049;-51
2021/12/12 03:17:03;;;;;;;;;;;28.40;78.20;;;;;;5064511;28;20032;-51
2021/12/12 03:19:30;;;;;;;7.85;3.53;;;28.30;78.30;;;;;;5063073;28;19975;-50
2021/12/12 03:21:57;;;;;;;5.80;3.40;;;28.30;78.40;;;;;;5064071;28;20025;-51
2021/12/12 03:24:26;;;;;;;7.47;3.65;;;28.30;78.40;;;;;;5064064;28;20021;-48
2021/12/12 03:26:57;;;;;;;6.22;3.60;;;28.30;78.50;;;;;;5064007;28;20096;-50
2021/12/12 03:29:26;;;;;;;9.07;3.58;;;28.30;78.50;;;;;;5063994;28;20066;-52
2021/12/12 03:32:01;;;;;;;7.20;3.22;;;28.30;78.40;;;;;;5063788;28;20201;-50
2021/12/12 03:34:43;;;;;;;6.07;3.28;;;28.20;78.40;;;;;;5063897;28;20017;-53
2021/12/12 03:37:12;;;;;;;5.75;3.08;;;28.20;78.60;;;;;;5065540;28;20104;-51
2021/12/12 03:39:45;;;;;;;6.70;3.60;;;28.20;78.70;;;;;;5063761;28;20348;-54
2021/12/12 03:42:38;;;;;;;10.23;4.40;;;28.20;78.70;;;;;;5063687;28;20229;-54
2021/12/12 03:45:06;;;;;;;6.82;3.70;;;28.20;78.70;;;;;;5060933;28;20252;-52
2021/12/12 03:47:37;;;;;;;6.50;3.78;;;28.20;78.90;;;;;;5062595;28;20074;-51
2021/12/12 03:50:12;;;;;;;7.10;3.47;;;28.20;79.00;;;;;;5063418;28;20324;-51
2021/12/12 03:52:42;;;;;;;6.85;3.80;;;28.10;79.10;;;;;;5063570;28;20289;-53
2021/12/12 03:55:10;;;;;;;8.65;3.78;;;28.10;79.30;;;;;;5063846;28;20021;-51
2021/12/12 03:57:38;;;;;;;12.30;3.95;;;28.10;79.60;;;;;;5063690;28;20381;-53
2021/12/12 04:00:11;;;;;;;7.97;3.50;;;28.10;79.60;;;;;;5063828;28;20040;-55
2021/12/12 04:02:37;;;;;;;6.45;3.83;;;28.10;79.90;;;;;;5065521;28;20027;-60
2021/12/12 04:05:05;;;;;;;6.88;3.58;;;28.10;80.00;;;;;;5067886;28;20301;-51
2021/12/12 04:07:47;;;;;;;5.38;3.55;;;28.00;79.90;;;;;;5067571;28;20317;-52
2021/12/12 04:10:23;;;;;;;8.98;3.83;;;28.10;80.00;;;;;;5067791;28;20033;-55
2021/12/12 04:12:52;;;;;;;9.85;3.95;;;28.00;80.20;;;;;;5065975;28;20318;-53
2021/12/12 04:15:20;;;;;;;10.23;4.13;;;28.00;80.30;;;;;;5067742;28;20302;-52
2021/12/12 04:17:51;;;;;;;6.90;3.55;;;28.00;80.40;;;;;;5065914;28;20093;-56
2021/12/12 04:20:49;;;;;;;5.50;3.60;;;28.00;80.40;;;;;;5067404;28;20056;-54
2021/12/12 04:23:22;;;;;;;9.05;4.00;;;28.00;80.50;;;;;;5067176;28;20025;-55
2021/12/12 04:25:50;;;;;;;8.80;4.00;;;27.90;80.40;;;;;;5067695;28;20332;-54
2021/12/12 04:28:20;;;;;;;10.35;4.15;;;28.00;80.60;;;;;;5067230;28;20021;-54
2021/12/12 04:31:01;;;;;;;8.23;3.83;;;27.90;80.60;;;;;;5067533;28;20324;-53
2021/12/12 04:33:28;;;;;;;6.50;3.30;;;27.90;80.70;;;;;;5067361;28;20217;-54
2021/12/12 04:36:00;;;;;;;9.98;3.70;;;27.90;80.50;;;;;;5067105;28;20028;-53
2021/12/12 04:38:27;;;;;;;7.95;4.10;;;27.90;80.40;;;;;;5067167;28;20058;-50
2021/12/12 04:40:54;;;;;;;6.18;4.07;;;27.90;80.40;;;;;;5067174;28;20025;-52
2021/12/12 04:43:20;;;;;;;8.38;3.90;;;27.90;80.40;;;;;;5066885;28;20080;-52
2021/12/12 04:46:36;;;;;;;8.50;3.92;;;27.90;80.30;;;;;;5067704;28;20025;-52
2021/12/12 04:51:57;;;;;;;15.13;4.80;;;27.90;80.10;;;;;;5066528;28;20044;-53
2021/12/12 04:54:43;;;;;;;11.35;3.90;;;27.90;80.00;;;;;;5066808;28;20017;-53
2021/12/12 04:57:44;;;;;;;6.80;3.80;;;27.90;80.00;;;;;;5066197;28;20021;-53
2021/12/12 05:00:42;;;;;;;9.68;3.85;;;27.90;80.00;;;;;;5066772;28;20030;-53
2021/12/12 05:03:24;;;;;;;9.73;4.03;;;27.80;80.00;;;;;;5044737;28;20392;-57
2021/12/12 05:06:13;;;;;;;6.40;4.13;;;27.80;80.20;;;;;;5066489;28;20039;-53
2021/12/12 05:08:44;;;;;;;7.03;4.20;;;27.80;80.30;;;;;;5066070;28;20037;-51
2021/12/12 05:11:21;;;;;;;11.50;5.60;;;27.80;80.30;;;;;;5066164;28;20029;-51
2021/12/12 05:13:55;;;;;;;11.90;4.80;;;27.80;80.20;;;;;;5065087;28;20021;-56
2021/12/12 05:16:35;;;;;;;10.82;4.57;;;27.70;80.10;;;;;;5066100;28;20032;-52
2021/12/12 05:19:15;;;;;;;6.15;4.07;;;27.70;80.10;;;;;;5066001;28;20022;-55
2021/12/12 05:21:48;;;;;;;10.02;4.32;;;27.70;80.10;;;;;;5065975;28;20327;-54
2021/12/12 05:24:16;;;;;;;7.55;4.70;;;27.70;80.20;;;;;;5066011;28;20345;-53
2021/12/12 05:27:08;;;;;;;8.25;4.13;;;27.70;79.90;;;;;;5066151;28;20371;-52
2021/12/12 05:29:44;;;;;;;6.75;4.05;;;27.70;80.10;;;;;;5065875;28;20025;-55
2021/12/12 05:32:12;;;;;;;10.10;4.38;;;27.70;80.00;;;;;;5065993;28;20029;-54
2021/12/12 05:34:41;;;;;;;7.95;4.38;;;27.70;79.80;;;;;;5065692;28;20313;-55
2021/12/12 05:37:11;;;;;;;13.07;5.28;;;27.60;79.80;;;;;;5065606;28;20029;-58
2021/12/12 05:39:38;;;;;;;9.18;5.00;;;27.60;79.70;;;;;;5065839;28;20364;-55
2021/12/12 05:42:06;;;;;;;9.63;4.85;;;27.60;80.20;;;;;;5065639;28;20029;-55
2021/12/12 05:44:33;;;;;;;8.38;4.57;;;27.60;79.30;;;;;;5065625;28;20328;-55
2021/12/12 05:47:02;;;;;;;9.65;4.32;;;27.60;78.90;;;;;;5065425;28;20088;-55
2021/12/12 05:49:29;;;;;;;8.73;4.40;;;27.60;78.70;;;;;;5065529;28;20049;-53
2021/12/12 05:51:55;;;;;;;6.68;4.15;;;27.60;78.90;;;;;;5065605;28;20089;-52
2021/12/12 05:54:25;;;;;;;7.30;3.60;;;27.60;78.70;;;;;;5065577;28;20025;-52
2021/12/12 05:56:52;;;;;;;7.00;3.47;;;27.60;78.40;;;;;;5065374;28;20084;-54
2021/12/12 05:59:20;;;;;;;6.35;3.35;;;27.50;78.30;;;;;;5065667;28;20031;-54
2021/12/12 06:01:47;;;;;;;7.32;3.30;;;27.60;78.10;;;;;;5065259;28;20244;-54
2021/12/12 06:04:16;;;;;;;5.47;3.22;;;27.50;77.70;;;;;;5065332;28;20045;-54
2021/12/12 06:06:44;;;;;;;7.22;3.50;;;27.50;77.70;;;;;;5065069;28;20040;-50
2021/12/12 06:09:12;;;;;;;9.07;3.40;;;27.60;77.60;;;;;;5065121;28;20033;-50
2021/12/12 06:11:42;;;;;;;7.68;3.40;;;27.60;77.20;;;;;;5065101;28;20040;-57
2021/12/12 06:14:10;;;;;;;6.45;3.35;;;27.50;76.80;;;;;;5064066;28;20190;-51
2021/12/12 06:16:38;;;;;;;6.63;3.28;;;27.50;76.80;;;;;;5065187;28;20082;-50
2021/12/12 06:19:16;;;;;;;7.60;3.67;;;27.50;76.90;;;;;;5064854;28;20213;-50
2021/12/12 06:21:43;;;;;;;4.85;3.25;;;27.50;77.30;;;;;;5065132;28;20051;-53
2021/12/12 06:24:10;;;;;;;4.80;3.20;;;27.50;77.60;;;;;;5065130;28;20207;-58
2021/12/12 06:26:40;;;;;;;6.65;3.50;;;27.50;77.70;;;;;;5064784;28;20020;-53
2021/12/12 06:29:07;;;;;;;7.20;3.67;;;27.50;78.00;;;;;;5064887;28;20029;-53
2021/12/12 06:31:42;;;;;;;6.10;3.30;;;27.50;78.30;;;;;;5064913;28;20027;-55
2021/12/12 06:34:09;;;;;;;6.43;3.35;;;27.50;78.40;;;;;;5064884;28;20364;-56
2021/12/12 06:36:37;;;;;;;7.65;3.60;;;27.50;78.80;;;;;;5064815;28;20123;-54
2021/12/12 06:39:07;;;;;;;7.03;3.30;;;27.50;79.00;;;;;;5064534;28;20048;-55
2021/12/12 06:41:35;;;;;;;7.82;4.00;;;27.40;79.40;;;;;;5064648;28;20080;-54
2021/12/12 06:44:07;;;;;;;12.23;4.10;;;27.40;79.60;;;;;;5064883;28;20052;-55
2021/12/12 06:46:35;;;;;;;8.20;4.22;;;27.40;79.90;;;;;;5064442;28;20074;-55
2021/12/12 06:49:06;;;;;;;7.63;4.03;;;27.40;80.10;;;;;;5064292;28;20313;-54
2021/12/12 06:51:58;;;;;;;8.00;3.90;;;27.40;80.30;;;;;;5064538;28;20024;-56
2021/12/12 06:54:28;;;;;;;13.50;4.07;;;27.40;80.50;;;;;;5064778;28;20246;-54
2021/12/12 06:56:57;;;;;;;8.05;4.40;;;27.40;80.80;;;;;;5064358;28;20021;-61
2021/12/12 06:59:26;;;;;;;11.65;4.93;;;27.30;80.90;;;;;;5064534;28;20029;-51
2021/12/12 07:01:54;;;;;;;9.32;4.63;;;27.30;80.90;;;;;;5064300;28;20099;-51
2021/12/12 07:04:21;;;;;;;14.45;5.28;;;27.30;81.00;;;;;;5064046;28;20021;-50
2021/12/12 07:06:54;;;;;;;8.15;4.75;;;27.30;81.20;;;;;;5064277;28;20209;-55
2021/12/12 07:09:21;;;;;;;8.23;5.25;;;27.30;81.30;;;;;;5064352;28;20017;-52
2021/12/12 07:11:48;;;;;;;11.82;6.50;;;27.30;81.20;;;;;;5064014;28;20067;-57
2021/12/12 07:14:16;;;;;;;16.23;7.00;;;27.30;81.10;;;;;;5064277;28;20021;-53
2021/12/12 07:16:44;;;;;;;9.43;6.13;;;27.30;81.40;;;;;;5064349;28;20074;-51
2021/12/12 07:19:14;;;;;;;10.93;6.07;;;27.30;81.00;;;;;;5063992;28;20325;-52
2021/12/12 07:21:42;;;;;;;11.20;5.65;;;27.30;80.90;;;;;;5063987;28;20029;-58
2021/12/12 07:24:09;;;;;;;12.13;6.15;;;27.20;80.70;;;;;;5064080;28;20028;-51
2021/12/12 07:26:36;;;;;;;8.85;5.45;;;27.20;80.40;;;;;;5063755;28;20025;-50
2021/12/12 07:29:04;;;;;;;8.40;5.80;;;27.20;80.70;;;;;;5063923;28;20029;-50
2021/12/12 07:31:36;;;;;;;10.00;4.70;;;27.20;80.50;;;;;;5063889;28;20029;-51
2021/12/12 07:34:08;;;;;;;7.75;4.43;;;27.20;80.70;;;;;;5063811;28;20021;-51
2021/12/12 07:36:37;;;;;;;7.85;4.57;;;27.20;80.20;;;;;;5063391;28;20032;-53
2021/12/12 07:39:13;;;;;;;10.75;4.00;;;27.20;80.20;;;;;;5063795;28;20029;-52
2021/12/12 07:41:43;;;;;;;11.73;3.80;;;27.20;80.10;;;;;;5063777;28;20083;-55
2021/12/12 07:44:17;;;;;;;8.73;3.63;;;27.20;80.20;;;;;;5079395;28;20045;-57
2021/12/12 07:46:46;;;;;;;13.20;3.85;;;27.20;80.30;;;;;;5063601;28;20028;-54
2021/12/12 07:49:13;;;;;;;8.52;3.80;;;27.10;80.20;;;;;;5063476;28;20053;-52
2021/12/12 07:51:42;;;;;;;6.82;3.67;;;27.20;80.40;;;;;;5063528;28;20017;-58
2021/12/12 07:54:10;;;;;;;9.98;3.70;;;27.10;80.30;;;;;;5063848;28;20029;-55
2021/12/12 07:56:40;;;;;;;7.65;3.90;;;27.10;80.40;;;;;;5063615;28;20023;-55
2021/12/12 07:59:10;;;;;;;5.45;3.75;;;27.10;80.40;;;;;;5063586;28;20364;-54
2021/12/12 08:01:40;;;;;;;8.85;4.10;;;27.10;80.50;;;;;;5063571;28;20021;-58
2021/12/12 08:04:08;;;;;;;8.52;3.78;;;27.10;80.50;;;;;;5063616;28;20020;-55
2021/12/12 08:06:35;;;;;;;9.88;4.00;;;27.10;80.60;;;;;;5063409;28;20064;-56
2021/12/12 08:09:04;;;;;;;7.63;3.75;;;27.10;80.60;;;;;;5063426;28;20025;-55
2021/12/12 08:11:34;;;;;;;7.03;4.05;;;27.10;80.70;;;;;;5063527;28;20266;-56
2021/12/12 08:14:04;;;;;;;7.03;3.85;;;27.10;80.70;;;;;;5063392;28;20028;-58
2021/12/12 08:16:31;;;;;;;7.88;3.60;;;27.00;80.70;;;;;;5063401;28;20017;-60
2021/12/12 08:18:59;;;;;;;6.30;3.58;;;27.00;80.70;;;;;;5063458;28;20041;-55
2021/12/12 08:21:28;;;;;;;5.97;3.67;;;27.00;80.70;;;;;;5063336;28;20116;-56
2021/12/12 08:23:59;;;;;;;8.43;3.70;;;27.00;80.70;;;;;;5063414;28;20017;-55
2021/12/12 08:26:26;;;;;;;6.05;3.55;;;27.00;80.60;;;;;;5063196;28;20059;-56
2021/12/12 08:28:53;;;;;;;6.53;3.42;;;27.00;80.50;;;;;;5063152;28;20039;-55
2021/12/12 08:31:19;;;;;;;6.18;3.30;;;27.00;80.50;;;;;;5063296;28;20028;-56
2021/12/12 08:33:46;;;;;;;5.63;3.78;;;27.00;80.20;;;;;;5063141;28;20051;-56
2021/12/12 08:36:16;;;;;;;5.38;3.63;;;26.90;79.90;;;;;;5063247;28;20017;-58
2021/12/12 08:38:42;;;;;;;5.60;3.28;;;26.90;79.70;;;;;;5063487;28;20047;-61
2021/12/12 08:41:09;;;;;;;5.18;3.15;;;26.90;79.40;;;;;;5063181;28;20029;-56
2021/12/12 08:43:36;;;;;;;6.80;3.30;;;26.90;79.20;;;;;;5063138;28;20036;-55
2021/12/12 08:46:10;;;;;;;4.07;3.08;;;26.90;79.10;;;;;;5063132;28;20032;-55
2021/12/12 08:48:41;;;;;;;5.68;3.28;;;26.90;78.90;;;;;;5062879;28;20112;-55
2021/12/12 08:51:13;;;;;;;5.47;3.20;;;26.90;78.90;;;;;;5066809;28;20096;-56
2021/12/12 08:53:42;;;;;;;5.15;3.05;;;26.90;78.80;;;;;;5066777;28;20036;-56
2021/12/12 08:56:17;;;;;;;5.50;3.08;;;26.90;78.80;;;;;;5066574;28;20032;-59
2021/12/12 08:58:43;;;;;;;4.50;3.20;;;26.90;78.70;;;;;;5066642;28;20017;-57
2021/12/12 09:01:13;;;;;;;5.35;3.15;;;26.90;78.70;;;;;;5066455;28;20079;-55
2021/12/12 09:03:42;;;;;;;5.43;3.05;;;26.80;78.70;;;;;;5066571;28;20051;-56
2021/12/12 09:06:12;;;;;;;10.10;3.13;;;26.80;78.70;;;;;;5066578;28;20052;-56
2021/12/12 09:08:54;;;;;;;6.40;3.13;;;26.80;78.70;;;;;;5066345;28;20029;-50
2021/12/12 09:11:39;;;;;;;5.13;3.05;;;26.80;78.70;;;;;;5066579;28;20063;-50
2021/12/12 09:14:22;;;;;;;6.43;3.58;;;26.80;78.80;;;;;;5066508;28;20021;-51
2021/12/12 09:16:57;;;;;;;4.93;3.10;;;26.80;78.80;;;;;;5066312;28;20017;-51
2021/12/12 09:19:28;;;;;;;6.25;3.10;;;26.80;78.90;;;;;;5066385;28;20025;-51
2021/12/12 09:22:16;;;;;;;6.10;3.30;;;26.70;79.00;;;;;;5066243;28;20243;-51
2021/12/12 09:25:34;;;;;;;7.20;3.38;;;26.70;79.10;;;;;;5066412;28;20033;-53
2021/12/12 09:28:20;;;;;;;3.95;2.95;;;26.70;79.00;;;;;;5066105;28;20029;-53
2021/12/12 09:30:46;;;;;;;4.10;3.15;;;26.80;79.10;;;;;;5066373;28;20088;-53
2021/12/12 09:33:19;;;;;;;5.90;3.40;;;26.70;79.00;;;;;;5066215;28;20021;-53
2021/12/12 09:35:57;;;;;;;4.80;3.17;;;26.70;79.10;;;;;;5065906;28;20025;-53
2021/12/12 09:38:40;;;;;;;4.82;3.17;;;26.70;79.10;;;;;;5066007;28;20076;-54
2021/12/12 09:41:45;;;;;;;9.50;3.05;;;26.70;78.90;;;;;;5065734;28;20222;-59
2021/12/12 09:44:43;;;;;;;4.45;3.00;;;26.70;78.70;;;;;;5065907;28;20032;-53
2021/12/12 09:51:14;;;;;;;6.15;3.03;;;26.70;78.40;;;;;;5065421;28;20052;-53
2021/12/12 09:54:02;;;;;;;6.18;3.00;;;26.70;78.10;;;;;;5059296;28;20088;-55
2021/12/12 09:56:50;;;;;;;6.15;2.85;;;26.60;77.70;;;;;;5065581;28;20191;-55
2021/12/12 09:59:16;;;;;;;4.95;2.78;;;26.60;77.40;;;;;;5065683;28;20029;-55
2021/12/12 10:02:11;;;;;;;3.75;2.90;;;26.60;77.40;;;;;;5065219;28;20028;-54
2021/12/12 10:04:50;;;;;;;6.25;3.00;;;26.60;77.00;;;;;;5056157;28;20325;-54
2021/12/12 10:07:46;;;;;;;5.80;2.72;;;26.60;76.70;;;;;;5065446;28;20036;-54
2021/12/12 10:10:57;;;;;;;4.57;2.58;;;26.60;76.40;;;;;;5065397;28;20032;-54
2021/12/12 10:13:34;;;;;;;3.05;2.50;;;26.60;76.30;;;;;;5065270;28;20013;-53
2021/12/12 10:16:05;;;;;;;4.07;2.92;;;26.60;76.30;;;;;;5064998;28;20387;-53
2021/12/12 10:18:56;;;;;;;6.30;3.00;;;26.60;76.10;;;;;;5065110;28;20309;-56
2021/12/12 10:21:33;;;;;;;4.15;2.75;;;26.50;75.90;;;;;;5064970;28;20092;-55
2021/12/12 10:24:55;;;;;;;4.65;2.85;;;26.50;75.80;;;;;;5065119;28;20082;-54
2021/12/12 10:27:30;;;;;;;7.25;3.38;;;26.50;75.80;;;;;;5022494;28;20025;-55
2021/12/12 10:30:37;;;;;;;4.38;3.10;;;26.50;75.80;;;;;;5065180;28;20033;-53
2021/12/12 10:33:16;;;;;;;6.80;3.50;;;26.50;75.90;;;;;;5060171;28;20332;-53
2021/12/12 10:35:55;;;;;;;4.90;3.50;;;26.50;76.10;;;;;;5065314;28;20029;-54
2021/12/12 10:38:33;;;;;;;8.57;3.88;;;26.50;76.20;;;;;;5064848;28;20336;-53
2021/12/12 10:41:22;;;;;;;7.65;3.90;;;26.50;76.40;;;;;;5064672;28;20047;-54
2021/12/12 10:43:57;;;;;;;6.47;3.50;;;26.50;76.20;;;;;;5064585;28;20037;-60
2021/12/12 10:46:36;;;;;;;4.82;3.17;;;26.50;76.20;;;;;;5064471;28;20048;-55
2021/12/12 10:49:27;;;;;;;8.48;3.60;;;26.50;76.20;;;;;;5064345;28;20052;-53
2021/12/12 10:52:07;;;;;;;6.47;3.83;;;26.40;76.10;;;;;;5064358;28;20117;-50
2021/12/12 10:54:45;;;;;;;4.97;3.38;;;26.40;76.10;;;;;;5064684;28;20078;-50
2021/12/12 10:57:24;;;;;;;5.13;3.75;;;26.40;76.00;;;;;;5064411;28;20091;-49
2021/12/12 11:00:12;;;;;;;5.93;3.28;;;26.40;76.00;;;;;;5064674;28;20029;-53
2021/12/12 11:03:08;;;;;;;6.93;3.47;;;26.40;76.10;;;;;;5064290;28;20028;-50
2021/12/12 11:05:47;;;;;;;10.93;3.70;;;26.40;76.00;;;;;;5064653;28;20025;-52
2021/12/12 11:08:23;;;;;;;9.02;3.80;;;26.40;76.40;;;;;;5064229;28;20024;-50
2021/12/12 11:10:51;;;;;;;6.03;3.58;;;26.40;76.30;;;;;;5064440;28;20043;-50
2021/12/12 11:13:42;;;;;;;6.93;4.00;;;26.40;76.40;;;;;;5063600;28;20017;-49
2021/12/12 11:16:29;;;;;;;6.65;3.90;;;26.50;76.50;;;;;;5063770;28;20596;-49
2021/12/12 11:19:09;;;;;;;7.43;3.85;;;26.40;76.90;;;;;;5064114;28;20029;-52
2021/12/12 11:21:48;;;;;;;7.60;3.83;;;26.40;76.90;;;;;;5064022;28;20078;-52
2021/12/12 11:24:29;;;;;;;14.10;7.40;;;26.50;76.90;;;;;;5064064;28;20088;-55
2021/12/12 11:27:05;;;;;;;24.40;16.25;;;26.50;77.00;;;;;;5063938;28;20027;-52
2021/12/12 11:29:39;;;;;;;21.13;13.23;;;26.50;76.90;;;;;;5063912;28;20313;-55
2021/12/12 11:32:08;;;;;;;18.85;8.30;;;26.50;77.20;;;;;;5063985;28;20190;-54
2021/12/12 11:34:43;;;;;;;15.05;8.10;;;26.50;77.50;;;;;;5063998;28;20068;-54
2021/12/12 11:37:28;;;;;;;16.02;7.68;;;26.50;77.90;;;;;;5063643;28;20314;-57
2021/12/12 11:40:06;;;;;;;14.73;8.73;;;26.50;78.40;;;;;;5064359;28;20286;-59
2021/12/12 11:42:47;;;;;;;13.63;7.63;;;26.50;78.70;;;;;;5063797;28;20021;-56
2021/12/12 11:45:38;;;;;;;14.18;6.68;;;26.50;79.50;;;;;;5064099;28;20228;-56
2021/12/12 11:48:18;;;;;;;14.60;7.20;;;26.50;80.60;;;;;;5063483;28;20087;-59
2021/12/12 11:51:05;;;;;;;13.82;6.30;;;26.50;80.80;;;;;;5063833;28;20045;-56
2021/12/12 11:54:01;;;;;;;10.40;5.90;;;26.40;81.20;;;;;;5063525;28;20341;-52
2021/12/12 11:56:45;;;;;;;12.93;5.82;;;26.40;82.00;;;;;;5063598;28;20325;-51
2021/12/12 11:59:25;;;;;;;10.32;5.63;;;26.50;82.20;;;;;;5063556;28;20259;-52
2021/12/12 12:02:15;;;;;;;10.73;5.25;;;26.50;82.80;;;;;;5063554;28;20048;-52
2021/12/12 12:05:23;;;;;;;11.50;5.60;;;26.50;82.70;;;;;;5063614;28;20085;-52
2021/12/12 12:08:08;;;;;;;9.98;5.28;;;26.50;82.70;;;;;;5063462;28;20017;-53
2021/12/12 12:11:22;;;;;;;10.05;5.18;;;26.50;83.20;;;;;;5063832;28;20029;-59
2021/12/12 12:13:56;;;;;;;11.98;5.32;;;26.50;83.30;;;;;;5063294;28;20041;-55
2021/12/12 12:16:29;;;;;;;8.30;5.10;;;26.50;83.10;;;;;;5063511;28;20012;-57
2021/12/12 12:19:14;;;;;;;8.85;4.95;;;26.50;83.10;;;;;;5063618;28;20037;-59
2021/12/12 12:22:02;;;;;;;8.70;5.28;;;26.60;83.50;;;;;;5063541;28;20021;-57
2021/12/12 12:24:44;;;;;;;10.27;5.43;;;26.60;83.90;;;;;;5066730;28;20025;-55
2021/12/12 12:27:24;;;;;;;15.65;6.20;;;26.50;83.70;;;;;;5067536;28;20211;-57
2021/12/12 12:30:12;;;;;;;7.93;4.75;;;26.50;84.10;;;;;;5067407;28;20056;-55
2021/12/12 12:33:12;;;;;;;12.98;5.55;;;26.60;84.20;;;;;;5067019;28;20021;-60
2021/12/12 12:36:09;;;;;;;8.55;4.45;;;26.60;84.40;;;;;;5067506;28;20086;-57
2021/12/12 12:39:03;;;;;;;16.05;5.13;;;26.60;84.40;;;;;;5067196;28;20350;-55
2021/12/12 12:42:06;;;;;;;12.77;5.00;;;26.60;84.30;;;;;;5066868;28;20124;-55
2021/12/12 12:45:10;;;;;;;13.68;5.70;;;26.70;84.60;;;;;;5066838;28;20028;-54
2021/12/12 12:48:04;;;;;;;9.52;5.03;;;26.70;84.80;;;;;;5066677;28;20324;-54
2021/12/12 12:51:03;;;;;;;13.80;6.05;;;26.70;84.70;;;;;;5066654;28;20041;-58
2021/12/12 12:53:54;;;;;;;10.38;5.28;;;26.70;84.70;;;;;;5066764;28;20021;-56
2021/12/12 12:56:57;;;;;;;14.88;7.13;;;26.70;84.80;;;;;;5066653;28;20053;-59
2021/12/12 12:59:45;;;;;;;8.98;5.60;;;26.70;85.00;;;;;;5066844;28;20200;-58
2021/12/12 13:02:44;;;;;;;11.27;5.50;;;26.70;84.70;;;;;;5082082;28;20100;-51
2021/12/12 13:05:58;;;;;;;11.63;5.50;;;26.70;84.60;;;;;;5058345;28;20041;-49
2021/12/12 13:08:46;;;;;;;12.50;4.78;;;26.70;84.50;;;;;;5046911;28;20033;-50
2021/12/12 13:11:16;;;;;;;9.38;5.28;;;26.80;84.60;;;;;;5066500;28;20348;-51
2021/12/12 13:14:03;;;;;;;9.05;5.38;;;26.80;84.50;;;;;;5066253;28;20017;-53
2021/12/12 13:16:41;;;;;;;10.85;6.22;;;26.80;84.30;;;;;;5055471;28;20028;-52
2021/12/12 13:19:39;;;;;;;11.65;6.53;;;26.90;84.40;;;;;;5066478;28;20089;-51
2021/12/12 13:22:36;;;;;;;10.68;6.13;;;26.90;84.20;;;;;;5062434;28;20029;-55
2021/12/12 13:25:29;;;;;;;9.68;5.45;;;26.90;84.20;;;;;;5066497;28;20285;-51
2021/12/12 13:28:08;;;;;;;9.88;6.07;;;26.90;84.10;;;;;;5066085;28;20020;-50
2021/12/12 13:31:16;;;;;;;13.27;5.95;;;26.90;83.90;;;;;;5066327;28;20025;-50
2021/12/12 13:33:56;;;;;;;11.38;6.35;;;27.00;83.90;;;;;;5063475;28;20079;-52
2021/12/12 13:36:44;;;;;;;10.75;5.88;;;27.00;84.30;;;;;;5065479;28;20016;-51
2021/12/12 13:39:23;;;;;;;13.70;5.35;;;27.00;84.00;;;;;;5065807;28;20043;-53
2021/12/12 13:41:49;;;;;;;11.35;6.25;;;27.00;83.70;;;;;;5066011;28;20025;-51
2021/12/12 13:45:00;;;;;;;12.30;5.30;;;27.10;83.50;;;;;;5065892;28;20025;-51
2021/12/12 13:47:47;;;;;;;7.88;4.95;;;27.10;83.30;;;;;;5065589;28;20079;-57
2021/12/12 13:50:30;;;;;;;10.68;4.80;;;27.10;83.20;;;;;;5065884;28;20052;-51
2021/12/12 13:53:12;;;;;;;9.50;5.20;;;27.20;83.10;;;;;;5065877;28;20016;-51
2021/12/12 13:56:08;;;;;;;10.65;5.40;;;27.20;83.20;;;;;;5066131;28;20072;-51